Forside
METAR-TAF:

METAR-TAF

Lufthavne :

Kupang, Indonesien

Breddekreds: 10-10-17S, længdekreds: 123-40-16E, højde: 102 m

METAR: fraværende

Tid: 14:23 (07:23 UTC)

Vejrudsigter

Denne rapport blev lavet for 2 timer og 23 minutter siden, kl. 05:00 UTC
Foreløbig gælder fra 22 på 06 UTC til 23 på 06 UTC
Vind 14 kt fra vestsydvest
Sigt 10 km eller mere
Nogle få skyer i en højde af 1800 ft
ændring
fra 22 på 09 UTC til 22 på 11 UTC
Vind 4 kt fra nordvest
Brudte skyer i en højde af 1700 ft
ændring
fra 22 på 13 UTC til 22 på 15 UTC
Vind 2 kt fra sydvest

TAF: WATT 220500Z 2206/2306 24014KT 9999 FEW018 BECMG 2209/2211 32004KT BKN017 BECMG 2213/2215 22002KT

Vejrobservationer og prognoser fra mere end 4000 lufthavne (METAR og TAF).

De gule og røde prikker repræsenterer de meteorologiske stationer.

Flyt musen over at se navnet på stationen.

Så klik over at se vejr observationer og prognoser.

At skifte det kort: Klik på de grønne knapper med et sort kors for at zoome ind; på den grønne knap med en bindestreg for at zoome ud; eller på de grønne pile for tilstødende kort.


METAR-TAF: